Time;durP1;ratioP1;P1;durP2;ratioP2;P2;SDS_P1;SDS_P2;PMS_P1;PMS_P2;Temp;Humidity;BMP_temperature;BMP_pressure;BME280_temperature;BME280_humidity;BME280_pressure;Samples;Min_cycle;Max_cycle;Signal;HPM_P1;HPM_P2
2023/02/28 00:00:48;;;;;;;7.63;3.50;;;4.10;99.90;;;;;;5096735;28;20120;-91
2023/02/28 00:03:14;;;;;;;6.53;3.25;;;4.10;99.90;;;;;;5064003;28;20051;-91
2023/02/28 00:05:39;;;;;;;10.10;3.20;;;4.10;99.90;;;;;;5097287;28;20047;-91
2023/02/28 00:08:05;;;;;;;6.47;3.15;;;4.10;99.90;;;;;;5097633;28;20035;-90
2023/02/28 00:10:31;;;;;;;10.75;3.03;;;4.10;99.90;;;;;;5097188;28;20110;-91
2023/02/28 00:13:03;;;;;;;4.90;2.80;;;4.10;99.90;;;;;;5097361;28;20024;-91
2023/02/28 00:15:30;;;;;;;5.25;3.05;;;4.20;99.90;;;;;;5097402;28;20102;-90
2023/02/28 00:17:55;;;;;;;5.88;2.95;;;4.10;99.90;;;;;;5080477;28;20535;-91
2023/02/28 00:20:21;;;;;;;6.13;2.97;;;4.20;99.90;;;;;;5097218;28;20019;-91
2023/02/28 00:22:50;;;;;;;7.18;3.05;;;4.20;99.90;;;;;;5096999;28;20024;-88
2023/02/28 00:25:19;;;;;;;6.45;3.20;;;4.20;99.90;;;;;;5096845;28;20160;-88
2023/02/28 00:27:46;;;;;;;6.25;3.28;;;4.20;99.90;;;;;;5114961;28;20024;-88
2023/02/28 00:30:15;;;;;;;4.72;2.80;;;4.20;99.90;;;;;;5096667;28;20036;-88
2023/02/28 00:32:41;;;;;;;6.60;3.33;;;4.20;99.90;;;;;;5096540;28;20027;-88
2023/02/28 00:35:08;;;;;;;9.57;3.25;;;4.20;99.90;;;;;;5097094;28;20038;-88
2023/02/28 00:37:34;;;;;;;6.75;3.13;;;4.20;99.90;;;;;;5096572;28;20019;-88
2023/02/28 00:40:01;;;;;;;5.20;3.08;;;4.20;99.90;;;;;;5096914;28;20094;-89
2023/02/28 00:42:27;;;;;;;5.45;3.00;;;4.30;99.90;;;;;;5096680;28;20019;-89
2023/02/28 00:44:52;;;;;;;5.95;3.47;;;4.30;99.90;;;;;;5097409;28;20496;-89
2023/02/28 00:47:21;;;;;;;6.43;3.08;;;4.30;99.90;;;;;;5080130;28;20118;-89
2023/02/28 00:49:46;;;;;;;6.60;3.25;;;4.30;99.90;;;;;;5081173;28;20051;-89
2023/02/28 00:52:12;;;;;;;5.55;3.05;;;4.30;99.90;;;;;;5063305;28;20024;-89
2023/02/28 00:54:38;;;;;;;5.25;2.97;;;4.30;99.90;;;;;;5096748;28;20012;-88
2023/02/28 00:57:03;;;;;;;9.10;3.00;;;4.30;99.90;;;;;;5062882;28;20034;-88
2023/02/28 00:59:29;;;;;;;8.75;3.88;;;4.30;99.90;;;;;;5062984;28;20052;-88
2023/02/28 01:01:54;;;;;;;6.25;3.55;;;4.30;99.90;;;;;;5080333;28;20036;-88
2023/02/28 01:04:20;;;;;;;5.78;3.42;;;4.30;99.90;;;;;;5062617;28;20062;-88
2023/02/28 01:06:46;;;;;;;6.60;3.08;;;4.30;99.90;;;;;;5079595;28;20080;-88
2023/02/28 01:09:12;;;;;;;6.45;3.05;;;4.30;99.90;;;;;;5096571;28;20036;-88
2023/02/28 01:11:38;;;;;;;6.75;3.35;;;4.30;99.90;;;;;;5096489;28;20020;-89
2023/02/28 01:14:04;;;;;;;5.68;3.03;;;4.30;99.90;;;;;;5100601;28;20024;-88
2023/02/28 01:16:30;;;;;;;6.78;3.03;;;4.30;99.90;;;;;;5100399;28;20024;-88
2023/02/28 01:18:56;;;;;;;7.72;3.25;;;4.30;99.90;;;;;;5066924;28;20115;-88
2023/02/28 01:21:22;;;;;;;9.45;3.97;;;4.40;99.90;;;;;;5066957;28;20032;-88
2023/02/28 01:23:48;;;;;;;7.30;3.38;;;4.40;99.90;;;;;;5100440;28;20461;-88
2023/02/28 01:26:15;;;;;;;7.40;3.65;;;4.40;99.90;;;;;;5100311;28;20028;-88
2023/02/28 01:28:41;;;;;;;6.85;3.17;;;4.40;99.90;;;;;;5101925;28;20028;-88
2023/02/28 01:31:08;;;;;;;9.43;3.58;;;4.40;99.90;;;;;;5083611;28;20019;-88
2023/02/28 01:33:35;;;;;;;7.78;3.45;;;4.40;99.90;;;;;;5100330;28;20019;-88
2023/02/28 01:36:07;;;;;;;7.43;3.67;;;4.40;99.90;;;;;;5083167;28;20119;-88
2023/02/28 01:38:33;;;;;;;7.25;3.25;;;4.40;99.90;;;;;;5100707;28;20015;-87
2023/02/28 01:40:59;;;;;;;7.38;3.30;;;4.40;99.90;;;;;;5099994;28;20027;-91
2023/02/28 01:43:27;;;;;;;9.30;3.47;;;4.50;99.90;;;;;;5100417;28;20028;-90
2023/02/28 01:45:55;;;;;;;7.18;3.45;;;4.40;99.90;;;;;;5100193;28;20064;-89
2023/02/28 01:48:32;;;;;;;8.48;5.00;;;4.40;99.90;;;;;;5100063;28;20429;-89
2023/02/28 01:51:05;;;;;;;8.27;4.07;;;4.40;99.90;;;;;;5099899;28;20372;-89
2023/02/28 01:53:38;;;;;;;7.13;3.45;;;4.40;99.90;;;;;;5102046;28;20107;-90
2023/02/28 01:56:07;;;;;;;6.88;3.60;;;4.40;99.90;;;;;;5100227;28;20460;-89
2023/02/28 01:58:34;;;;;;;7.10;3.38;;;4.40;99.90;;;;;;5100545;28;20106;-89
2023/02/28 02:00:59;;;;;;;6.90;3.70;;;4.40;99.90;;;;;;5083359;28;20490;-88
2023/02/28 02:03:25;;;;;;;6.43;3.60;;;4.40;99.90;;;;;;5066242;28;20115;-89
2023/02/28 02:05:51;;;;;;;6.20;3.60;;;4.40;99.90;;;;;;5099831;28;20039;-89
2023/02/28 02:08:25;;;;;;;7.97;3.78;;;4.40;99.90;;;;;;5084554;28;20077;-89
2023/02/28 02:11:01;;;;;;;5.72;2.97;;;4.40;99.90;;;;;;5101352;28;20028;-89
2023/02/28 02:13:55;;;;;;;7.40;4.40;;;4.40;99.90;;;;;;5100830;28;20053;-90
2023/02/28 02:16:24;;;;;;;11.75;4.05;;;4.40;99.90;;;;;;5100334;28;20035;-89
2023/02/28 02:18:53;;;;;;;8.80;3.95;;;4.40;99.90;;;;;;5100691;28;20114;-89
2023/02/28 02:21:56;;;;;;;7.60;3.53;;;4.40;99.90;;;;;;5100110;28;20533;-89
2023/02/28 02:24:47;;;;;;;5.93;3.08;;;4.40;99.90;;;;;;5099661;28;20027;-89
2023/02/28 02:27:37;;;;;;;7.35;3.25;;;4.30;99.90;;;;;;5099810;28;20111;-89
2023/02/28 02:30:09;;;;;;;6.65;3.88;;;4.30;99.90;;;;;;5099753;28;20031;-89
2023/02/28 02:33:06;;;;;;;8.85;3.75;;;4.30;99.90;;;;;;5103355;28;20072;-88
2023/02/28 02:35:47;;;;;;;6.93;3.08;;;4.30;99.90;;;;;;5102835;28;20023;-88
2023/02/28 02:38:25;;;;;;;;;;;4.30;99.90;;;;;;5099678;28;20081;-88
2023/02/28 02:41:15;;;;;;;7.20;3.03;;;4.30;99.90;;;;;;5098916;28;19904;-89
2023/02/28 02:43:49;;;;;;;6.97;3.58;;;4.30;99.90;;;;;;5100737;28;20049;-89
2023/02/28 02:46:28;;;;;;;7.05;3.13;;;4.20;99.90;;;;;;5098846;28;20023;-88
2023/02/28 02:48:57;;;;;;;8.10;3.13;;;4.20;99.90;;;;;;5092848;28;20067;-88
2023/02/28 02:51:24;;;;;;;7.38;3.65;;;4.20;99.90;;;;;;5080780;28;20016;-88
2023/02/28 02:54:05;;;;;;;9.07;3.78;;;4.20;99.90;;;;;;5064575;28;20029;-88
2023/02/28 02:56:33;;;;;;;8.00;3.72;;;4.20;99.90;;;;;;5078449;28;20073;-89
2023/02/28 02:59:21;;;;;;;6.75;3.17;;;4.20;99.90;;;;;;5078551;28;20074;-88
2023/02/28 03:01:52;;;;;;;9.68;3.92;;;4.20;99.90;;;;;;5078171;28;20381;-88
2023/02/28 03:04:28;;;;;;;9.35;3.55;;;4.20;99.90;;;;;;5078369;28;20126;-88
2023/02/28 03:06:54;;;;;;;6.70;3.70;;;4.20;99.90;;;;;;5078122;28;20035;-88
2023/02/28 03:09:24;;;;;;;7.00;3.80;;;4.20;99.90;;;;;;5044833;28;20032;-88
2023/02/28 03:11:52;;;;;;;7.20;3.60;;;4.20;99.90;;;;;;5062180;28;20024;-88
2023/02/28 03:14:40;;;;;;;9.40;3.92;;;4.20;99.90;;;;;;5095824;28;20020;-88
2023/02/28 03:17:20;;;;;;;8.50;4.38;;;4.20;99.90;;;;;;5077765;28;20027;-88
2023/02/28 03:20:23;;;;;;;8.40;4.20;;;4.10;99.90;;;;;;5078074;28;20024;-88
2023/02/28 03:22:59;;;;;;;10.05;5.32;;;4.10;99.90;;;;;;4997364;28;20074;-87
2023/02/28 03:25:25;;;;;;;9.20;3.78;;;4.10;99.90;;;;;;5067319;28;20029;-90
2023/02/28 03:28:07;;;;;;;8.77;4.10;;;4.10;99.90;;;;;;5078243;28;20027;-90
2023/02/28 03:31:13;;;;;;;7.50;4.20;;;4.10;99.90;;;;;;5079261;28;20070;-90
2023/02/28 03:33:45;;;;;;;7.68;3.45;;;4.10;99.90;;;;;;5067462;28;20472;-90
2023/02/28 03:36:19;;;;;;;8.10;3.53;;;4.10;99.90;;;;;;5076980;28;20065;-91
2023/02/28 03:39:08;;;;;;;11.23;3.90;;;4.20;99.90;;;;;;5078370;28;20118;-90
2023/02/28 03:41:41;;;;;;;7.22;4.30;;;4.10;99.90;;;;;;5077846;28;20028;-88
2023/02/28 03:44:15;;;;;;;7.05;4.28;;;4.10;99.90;;;;;;5078157;28;20020;-88
2023/02/28 03:46:48;;;;;;;6.80;3.58;;;4.10;99.90;;;;;;5078349;28;20465;-88
2023/02/28 03:49:20;;;;;;;9.02;3.80;;;4.10;99.90;;;;;;5077809;28;20024;-88
2023/02/28 03:51:48;;;;;;;6.22;3.40;;;4.20;99.90;;;;;;5077601;28;20039;-88
2023/02/28 03:54:22;;;;;;;5.40;3.30;;;4.10;99.90;;;;;;5077324;28;20023;-88
2023/02/28 03:56:47;;;;;;;12.93;4.13;;;4.20;99.90;;;;;;5077104;28;20047;-89
2023/02/28 03:59:19;;;;;;;8.05;3.63;;;4.20;99.90;;;;;;5077207;28;20480;-89
2023/02/28 04:01:45;;;;;;;;;;;4.20;99.90;;;;;;5077700;28;20020;-89
2023/02/28 04:04:12;;;;;;;5.60;3.25;;;4.10;99.90;;;;;;5077382;28;19969;-89
2023/02/28 04:06:39;;;;;;;5.55;2.80;;;4.20;99.90;;;;;;5077056;28;20055;-89
2023/02/28 04:09:07;;;;;;;6.60;3.42;;;4.10;99.90;;;;;;5076950;28;20020;-89
2023/02/28 04:11:34;;;;;;;6.63;3.45;;;4.20;99.90;;;;;;5076755;28;20120;-88
2023/02/28 04:14:04;;;;;;;6.40;2.90;;;4.10;99.90;;;;;;5077002;28;20020;-88
2023/02/28 04:16:32;;;;;;;6.65;2.83;;;4.20;99.90;;;;;;5076769;28;20024;-88
2023/02/28 04:19:01;;;;;;;5.90;3.10;;;4.20;99.90;;;;;;5076879;28;20020;-89
2023/02/28 04:21:38;;;;;;;5.85;2.95;;;4.10;99.90;;;;;;5044653;28;20024;-89
2023/02/28 04:24:05;;;;;;;6.15;3.20;;;4.20;99.90;;;;;;5076926;28;20024;-89
2023/02/28 04:26:33;;;;;;;5.72;2.78;;;4.20;99.90;;;;;;5043562;28;20024;-88
2023/02/28 04:29:00;;;;;;;5.70;3.00;;;4.20;99.90;;;;;;5076733;28;20024;-88
2023/02/28 04:31:26;;;;;;;5.50;2.60;;;4.20;99.90;;;;;;5076601;28;20024;-88
2023/02/28 04:33:51;;;;;;;6.30;2.83;;;4.20;99.90;;;;;;5043372;28;20157;-88
2023/02/28 04:36:18;;;;;;;4.55;2.60;;;4.20;99.90;;;;;;5060158;28;20016;-88
2023/02/28 04:38:45;;;;;;;6.10;3.22;;;4.20;99.90;;;;;;5076919;28;20024;-89
2023/02/28 04:41:11;;;;;;;5.95;2.80;;;4.20;99.90;;;;;;5060070;28;20523;-89
2023/02/28 04:43:36;;;;;;;6.80;2.45;;;4.20;99.90;;;;;;5060188;28;20476;-88
2023/02/28 04:46:05;;;;;;;5.55;2.60;;;4.20;99.90;;;;;;5059479;28;20038;-89
2023/02/28 04:48:33;;;;;;;7.40;3.05;;;4.20;99.90;;;;;;5060232;28;20032;-90
2023/02/28 04:51:19;;;;;;;6.68;3.00;;;4.20;99.90;;;;;;5078192;28;20066;-90
2023/02/28 04:53:45;;;;;;;7.63;3.58;;;4.20;99.90;;;;;;5076817;28;20048;-90
2023/02/28 04:56:16;;;;;;;5.05;3.03;;;4.20;99.90;;;;;;5076825;28;20086;-90
2023/02/28 04:58:42;;;;;;;5.15;2.60;;;4.20;99.90;;;;;;5060254;28;20495;-90
2023/02/28 05:01:29;;;;;;;6.03;2.55;;;4.20;99.90;;;;;;5059979;28;20028;-91
2023/02/28 05:03:57;;;;;;;5.05;2.30;;;4.20;99.90;;;;;;5076290;28;20047;-90
2023/02/28 05:06:25;;;;;;;3.85;1.95;;;4.20;99.90;;;;;;5076358;28;20032;-88
2023/02/28 05:08:51;;;;;;;7.13;1.95;;;4.20;99.90;;;;;;5076055;28;20444;-88
2023/02/28 05:11:25;;;;;;;4.45;1.90;;;4.20;99.90;;;;;;5076080;28;20024;-88
2023/02/28 05:13:53;;;;;;;4.38;2.13;;;4.20;99.90;;;;;;5076928;28;20020;-88
2023/02/28 05:16:19;;;;;;;4.05;1.95;;;4.20;99.90;;;;;;5076388;28;20475;-88
2023/02/28 05:18:45;;;;;;;5.28;1.92;;;4.10;99.90;;;;;;5076395;28;20036;-88
2023/02/28 05:21:28;;;;;;;2.53;1.60;;;4.10;99.90;;;;;;5060217;28;20062;-88
2023/02/28 05:23:55;;;;;;;3.55;1.95;;;4.10;99.90;;;;;;5075997;28;20020;-88
2023/02/28 05:26:21;;;;;;;7.60;2.10;;;4.10;99.90;;;;;;5093973;28;20058;-88
2023/02/28 05:28:47;;;;;;;3.63;2.28;;;4.10;99.90;;;;;;5059514;28;20078;-88
2023/02/28 05:31:13;;;;;;;5.65;2.05;;;4.10;99.90;;;;;;5042769;28;20031;-88
2023/02/28 05:33:39;;;;;;;5.15;2.10;;;4.10;99.90;;;;;;5059365;28;20016;-88
2023/02/28 05:36:05;;;;;;;4.30;1.83;;;4.10;99.90;;;;;;5075610;28;20036;-89
2023/02/28 05:38:31;;;;;;;4.55;2.17;;;4.10;99.90;;;;;;5076254;28;20024;-90
2023/02/28 05:40:57;;;;;;;4.55;1.98;;;4.10;99.90;;;;;;5043061;28;20093;-90
2023/02/28 05:43:25;;;;;;;4.10;2.10;;;4.10;99.90;;;;;;5059872;28;20042;-90
2023/02/28 05:45:50;;;;;;;8.48;3.83;;;4.10;99.90;;;;;;5076096;28;20547;-90
2023/02/28 05:48:17;;;;;;;3.33;1.85;;;4.10;99.90;;;;;;5042758;28;20079;-91
2023/02/28 05:50:45;;;;;;;5.40;2.15;;;4.10;99.90;;;;;;5075909;28;20031;-90
2023/02/28 05:53:11;;;;;;;5.95;2.25;;;4.00;99.90;;;;;;5060317;28;20027;-90
2023/02/28 05:55:37;;;;;;;6.15;2.78;;;4.00;99.90;;;;;;5076238;28;20016;-90
2023/02/28 05:58:04;;;;;;;4.80;2.10;;;4.00;99.90;;;;;;5077782;28;20024;-90
2023/02/28 06:03:51;;;;;;;4.78;2.40;;;4.00;99.90;;;;;;5106050;28;20126;-91
2023/02/28 06:06:17;;;;;;;4.05;2.03;;;4.00;99.90;;;;;;5051814;28;20024;-90
2023/02/28 06:08:44;;;;;;;4.43;2.10;;;4.00;99.90;;;;;;5047637;28;20473;-89
2023/02/28 06:11:10;;;;;;;3.55;2.08;;;4.00;99.90;;;;;;5063467;28;20035;-91
2023/02/28 06:13:36;;;;;;;2.72;1.80;;;4.00;99.90;;;;;;5046144;28;20035;-90
2023/02/28 06:16:02;;;;;;;5.05;1.92;;;4.00;99.90;;;;;;5046127;28;20051;-90
2023/02/28 06:18:27;;;;;;;4.88;2.28;;;4.00;99.90;;;;;;5062982;28;20025;-90
2023/02/28 06:20:54;;;;;;;4.47;2.50;;;4.00;99.90;;;;;;5046055;28;20040;-90
2023/02/28 06:23:24;;;;;;;6.38;2.35;;;4.00;99.90;;;;;;5079673;28;20039;-91
2023/02/28 06:25:50;;;;;;;5.32;2.60;;;4.00;99.90;;;;;;5079246;28;20024;-90
2023/02/28 06:28:16;;;;;;;5.00;2.70;;;4.00;99.90;;;;;;5046796;28;20124;-89
2023/02/28 06:30:42;;;;;;;6.55;2.60;;;4.00;99.90;;;;;;5078750;28;20486;-89
2023/02/28 06:33:08;;;;;;;4.72;2.45;;;4.00;99.90;;;;;;5045747;28;20045;-89
2023/02/28 06:35:34;;;;;;;3.65;1.90;;;4.00;99.90;;;;;;5080373;28;20027;-88
2023/02/28 06:38:00;;;;;;;3.95;1.90;;;4.00;99.90;;;;;;5067835;28;20035;-88
2023/02/28 06:40:26;;;;;;;3.70;1.77;;;4.00;99.90;;;;;;5081680;28;20020;-90
2023/02/28 06:42:52;;;;;;;4.22;1.92;;;4.00;99.90;;;;;;5062195;28;20020;-89
2023/02/28 06:45:18;;;;;;;4.72;2.03;;;4.00;99.90;;;;;;5078963;28;20034;-89
2023/02/28 06:47:43;;;;;;;5.05;1.90;;;4.00;99.90;;;;;;5045453;28;20028;-89
2023/02/28 06:50:11;;;;;;;4.38;1.90;;;4.00;99.90;;;;;;5061874;28;20031;-89
2023/02/28 06:52:40;;;;;;;5.65;1.90;;;4.00;99.90;;;;;;5046450;28;20032;-88
2023/02/28 06:55:07;;;;;;;3.67;2.00;;;4.00;99.90;;;;;;5079389;28;20097;-88
2023/02/28 06:57:34;;;;;;;11.73;2.30;;;4.00;99.90;;;;;;5045885;28;20085;-89
2023/02/28 07:00:00;;;;;;;3.67;2.15;;;4.00;99.90;;;;;;5082095;28;20020;-90
2023/02/28 07:02:27;;;;;;;7.57;2.47;;;4.00;99.90;;;;;;5079804;28;20373;-89
2023/02/28 07:04:53;;;;;;;3.63;1.88;;;4.00;99.90;;;;;;5078236;28;20141;-89
2023/02/28 07:07:19;;;;;;;4.57;1.95;;;4.00;99.90;;;;;;5044931;28;20058;-89
2023/02/28 07:09:45;;;;;;;5.22;2.20;;;4.00;99.90;;;;;;5078462;28;20020;-89
2023/02/28 07:12:10;;;;;;;3.95;1.90;;;4.00;99.90;;;;;;5061147;28;20021;-89
2023/02/28 07:14:36;;;;;;;4.22;2.20;;;4.00;99.90;;;;;;5079188;28;20030;-90
2023/02/28 07:17:03;;;;;;;6.28;2.40;;;4.00;99.90;;;;;;5061352;28;20027;-90
2023/02/28 07:19:28;;;;;;;5.45;2.53;;;4.00;99.90;;;;;;5061254;28;20030;-90
2023/02/28 07:21:54;;;;;;;4.68;2.70;;;4.00;99.90;;;;;;5060800;28;20119;-89
2023/02/28 07:24:20;;;;;;;5.32;2.47;;;4.00;99.90;;;;;;5044386;28;20036;-87
2023/02/28 07:26:46;;;;;;;5.15;2.50;;;4.00;99.90;;;;;;5061432;28;20047;-87
2023/02/28 07:29:11;;;;;;;5.15;2.28;;;4.00;99.90;;;;;;5045292;28;20020;-89
2023/02/28 07:31:37;;;;;;;5.18;2.20;;;4.00;99.90;;;;;;5044383;28;20028;-87
2023/02/28 07:34:03;;;;;;;6.20;2.50;;;4.00;99.90;;;;;;5045586;28;20020;-88
2023/02/28 07:36:28;;;;;;;5.47;2.78;;;4.00;99.90;;;;;;5060704;28;20024;-87
2023/02/28 07:38:54;;;;;;;7.90;2.70;;;4.00;99.90;;;;;;5076416;28;20019;-87
2023/02/28 07:41:22;;;;;;;6.22;2.58;;;4.00;99.90;;;;;;5060695;28;20021;-88
2023/02/28 07:43:48;;;;;;;5.50;2.70;;;4.00;99.90;;;;;;5077118;28;20028;-88
2023/02/28 07:46:16;;;;;;;7.28;2.45;;;4.00;99.90;;;;;;5077115;28;20035;-88
2023/02/28 07:48:42;;;;;;;4.85;2.60;;;4.00;99.90;;;;;;5060474;28;20020;-88
2023/02/28 07:51:08;;;;;;;10.15;2.85;;;4.00;99.90;;;;;;5060301;28;20126;-91
2023/02/28 07:53:34;;;;;;;5.38;2.60;;;4.00;99.90;;;;;;5044095;28;20453;-91
2023/02/28 07:56:01;;;;;;;4.75;2.75;;;4.00;99.90;;;;;;5060951;28;20404;-90
2023/02/28 07:58:29;;;;;;;7.07;2.85;;;4.00;99.90;;;;;;5061091;28;20448;-93
2023/02/28 08:04:18;;;;;;;6.45;2.97;;;4.00;99.90;;;;;;5208000;22;20352;-83
2023/02/28 08:06:44;;;;;;;5.30;2.63;;;4.00;99.90;;;;;;5076311;28;20067;-88
2023/02/28 08:09:10;;;;;;;4.03;2.55;;;4.00;99.90;;;;;;5053230;28;20046;-86
2023/02/28 08:11:36;;;;;;;6.10;2.70;;;4.00;99.90;;;;;;5075348;28;20500;-84
2023/02/28 08:14:02;;;;;;;3.78;2.03;;;4.00;99.90;;;;;;5057911;28;20036;-84
2023/02/28 08:16:28;;;;;;;4.72;2.35;;;4.00;99.90;;;;;;5051959;28;20041;-85
2023/02/28 08:18:53;;;;;;;3.05;2.03;;;4.00;99.90;;;;;;5072269;28;20028;-84
2023/02/28 08:21:20;;;;;;;3.70;2.40;;;4.00;99.90;;;;;;5058336;28;20032;-83
2023/02/28 08:23:51;;;;;;;6.25;2.63;;;4.10;99.90;;;;;;5059053;28;20114;-84
2023/02/28 08:26:18;;;;;;;5.57;1.92;;;4.10;99.90;;;;;;5054078;28;20436;-85
2023/02/28 08:28:46;;;;;;;4.55;2.00;;;4.10;99.90;;;;;;5062663;28;20028;-85
2023/02/28 08:31:14;;;;;;;6.32;2.00;;;4.20;99.90;;;;;;5061216;28;20101;-85
2023/02/28 08:33:41;;;;;;;7.32;1.90;;;4.20;99.90;;;;;;5069147;28;20372;-88
2023/02/28 08:36:08;;;;;;;4.07;1.70;;;4.20;99.80;;;;;;5053193;28;20030;-84
2023/02/28 08:38:34;;;;;;;2.08;1.60;;;4.20;99.00;;;;;;5067924;28;20056;-83
2023/02/28 08:41:02;;;;;;;4.57;1.48;;;4.30;99.00;;;;;;5054910;28;20032;-85
2023/02/28 08:43:28;;;;;;;3.08;1.67;;;4.30;98.10;;;;;;5075303;28;20027;-84
2023/02/28 08:45:58;;;;;;;5.65;1.63;;;4.30;97.50;;;;;;5055597;28;20120;-84
2023/02/28 08:48:25;;;;;;;3.78;1.50;;;4.30;96.70;;;;;;5046510;28;20022;-84
2023/02/28 08:51:02;;;;;;;3.15;1.50;;;4.30;95.80;;;;;;5074159;28;20495;-86
2023/02/28 08:53:31;;;;;;;3.40;1.55;;;4.30;94.80;;;;;;5105142;28;20043;-84
2023/02/28 08:56:02;;;;;;;4.38;1.60;;;4.30;94.60;;;;;;5082400;28;20059;-84
2023/02/28 08:58:28;;;;;;;3.55;1.70;;;4.30;92.30;;;;;;5070849;28;20107;-84
2023/02/28 09:00:55;;;;;;;2.72;1.70;;;4.30;93.10;;;;;;5072810;28;20024;-85
2023/02/28 09:03:21;;;;;;;3.10;1.70;;;4.30;92.90;;;;;;5042764;28;20024;-85
2023/02/28 09:05:58;;;;;;;4.28;1.92;;;4.40;92.90;;;;;;5067024;28;20071;-85
2023/02/28 09:08:25;;;;;;;3.30;1.85;;;4.40;92.90;;;;;;5046912;28;20024;-83
2023/02/28 09:10:51;;;;;;;3.00;1.55;;;4.40;92.80;;;;;;5089185;28;20028;-89
2023/02/28 09:13:18;;;;;;;4.03;1.50;;;4.50;92.00;;;;;;5054693;28;20037;-85
2023/02/28 09:15:44;;;;;;;2.35;1.48;;;4.50;91.70;;;;;;5063214;28;20480;-84
2023/02/28 09:18:10;;;;;;;3.58;1.42;;;4.50;91.90;;;;;;5065422;28;20034;-84
2023/02/28 09:20:40;;;;;;;2.53;1.42;;;4.60;91.10;;;;;;5054174;28;20384;-85
2023/02/28 09:23:07;;;;;;;4.03;1.73;;;4.60;90.00;;;;;;5053037;28;20116;-85
2023/02/28 09:25:33;;;;;;;2.60;1.25;;;4.60;86.00;;;;;;5067868;28;20020;-85
2023/02/28 09:27:59;;;;;;;4.03;1.77;;;4.60;85.30;;;;;;5080371;28;20028;-90
2023/02/28 09:30:25;;;;;;;2.20;1.40;;;4.70;87.10;;;;;;5078273;28;20032;-85
2023/02/28 09:32:51;;;;;;;3.08;1.50;;;4.70;83.00;;;;;;5101593;28;20032;-85
2023/02/28 09:35:21;;;;;;;2.53;1.50;;;4.70;82.00;;;;;;5086500;28;20035;-85
2023/02/28 09:37:51;;;;;;;3.25;1.50;;;4.80;84.70;;;;;;5055378;28;20048;-86
2023/02/28 09:40:23;;;;;;;5.50;1.42;;;4.90;84.90;;;;;;5080725;28;20371;-85
2023/02/28 09:42:53;;;;;;;2.20;1.50;;;4.90;84.60;;;;;;5074615;28;20115;-86
2023/02/28 09:45:28;;;;;;;2.38;1.40;;;5.00;85.40;;;;;;5095064;28;20027;-85
2023/02/28 09:47:58;;;;;;;2.50;1.38;;;5.00;82.50;;;;;;5078608;28;20456;-85
2023/02/28 09:50:41;;;;;;;3.15;1.52;;;5.10;82.00;;;;;;5089869;28;20021;-84
2023/02/28 09:53:26;;;;;;;3.63;1.50;;;5.10;80.90;;;;;;5078095;28;20062;-85
2023/02/28 09:55:57;;;;;;;2.15;1.40;;;5.20;81.50;;;;;;5070364;28;20013;-86
2023/02/28 09:58:37;;;;;;;3.45;1.60;;;5.30;81.80;;;;;;5095340;28;20074;-87
2023/02/28 10:01:34;;;;;;;4.00;1.90;;;5.40;81.60;;;;;;5073266;28;20025;-88
2023/02/28 10:04:04;;;;;;;2.72;1.40;;;5.50;81.40;;;;;;5065305;28;20056;-85
2023/02/28 10:06:41;;;;;;;2.95;1.65;;;5.60;82.30;;;;;;5073396;28;20078;-86
2023/02/28 10:09:24;;;;;;;2.28;1.15;;;5.70;81.50;;;;;;5088025;28;20062;-87
2023/02/28 10:11:56;;;;;;;2.63;1.10;;;5.80;82.20;;;;;;5074516;28;20033;-86
2023/02/28 10:14:26;;;;;;;2.50;1.30;;;5.80;74.30;;;;;;5071476;28;20028;-87
2023/02/28 10:16:58;;;;;;;1.40;1.10;;;5.90;76.50;;;;;;5078973;28;20021;-87
2023/02/28 10:19:39;;;;;;;1.63;1.13;;;5.90;73.60;;;;;;5066508;28;20021;-87
2023/02/28 10:22:21;;;;;;;3.30;1.40;;;6.00;76.10;;;;;;5064461;28;20051;-87
2023/02/28 10:24:51;;;;;;;2.30;1.30;;;6.20;75.20;;;;;;5097845;28;20081;-87
2023/02/28 10:27:20;;;;;;;3.22;1.40;;;6.20;76.50;;;;;;5079355;28;20027;-87
2023/02/28 10:29:49;;;;;;;2.67;1.13;;;6.40;76.60;;;;;;5063608;28;20475;-87
2023/02/28 10:32:18;;;;;;;2.60;1.33;;;6.40;75.30;;;;;;5071575;28;20024;-88
2023/02/28 10:34:44;;;;;;;2.25;1.38;;;6.60;73.00;;;;;;5071772;28;20037;-87
2023/02/28 10:37:12;;;;;;;1.25;1.10;;;6.60;72.40;;;;;;5078704;28;20383;-87
2023/02/28 10:39:45;;;;;;;4.10;1.25;;;6.70;72.60;;;;;;5078901;28;20028;-87
2023/02/28 10:42:25;;;;;;;2.13;1.20;;;6.80;73.10;;;;;;5093631;28;20024;-90
2023/02/28 10:45:14;;;;;;;2.00;1.10;;;6.90;72.20;;;;;;5096692;28;20069;-87
2023/02/28 10:48:05;;;;;;;3.08;1.38;;;7.00;72.60;;;;;;5075215;28;20531;-87
2023/02/28 10:50:37;;;;;;;1.88;1.15;;;7.10;72.50;;;;;;5059716;28;20153;-86
2023/02/28 10:53:24;;;;;;;2.47;1.27;;;7.20;72.10;;;;;;5079874;28;20084;-88
2023/02/28 10:56:06;;;;;;;2.17;1.30;;;7.30;70.60;;;;;;5053250;28;20036;-88
2023/02/28 10:58:59;;;;;;;2.05;1.30;;;7.40;69.10;;;;;;5096154;28;20138;-87
2023/02/28 11:01:48;;;;;;;3.50;1.30;;;7.40;67.60;;;;;;5094570;28;20008;-89
2023/02/28 11:04:19;;;;;;;3.20;1.35;;;7.50;67.50;;;;;;5066342;28;20025;-87
2023/02/28 11:06:45;;;;;;;2.28;1.40;;;7.50;67.40;;;;;;5092303;28;20044;-87
2023/02/28 11:09:38;;;;;;;2.45;1.10;;;7.60;68.80;;;;;;5069971;28;20440;-91
2023/02/28 11:12:08;;;;;;;2.88;1.20;;;7.70;67.10;;;;;;5055499;28;20084;-89
2023/02/28 11:14:49;;;;;;;1.73;1.10;;;7.80;68.30;;;;;;5084910;28;20028;-87
2023/02/28 11:17:21;;;;;;;1.70;1.10;;;7.90;65.70;;;;;;5067134;28;20103;-87
2023/02/28 11:19:51;;;;;;;2.97;1.30;;;8.00;67.70;;;;;;5061717;28;20578;-87
2023/02/28 11:22:21;;;;;;;3.72;1.50;;;8.10;67.90;;;;;;5076430;28;20359;-90
2023/02/28 11:24:54;;;;;;;1.92;1.15;;;8.10;63.60;;;;;;5069634;28;20410;-88
2023/02/28 11:27:49;;;;;;;3.35;1.27;;;8.20;65.60;;;;;;5076027;28;20022;-86
2023/02/28 11:30:29;;;;;;;3.90;1.13;;;8.30;64.50;;;;;;5063908;28;20020;-88
2023/02/28 11:32:55;;;;;;;3.13;1.30;;;8.40;65.70;;;;;;5078247;28;20181;-88
2023/02/28 11:35:39;;;;;;;2.38;1.17;;;8.50;66.60;;;;;;5077964;28;20045;-88
2023/02/28 11:38:12;;;;;;;2.47;1.15;;;8.60;66.10;;;;;;5074885;28;20507;-90
2023/02/28 11:41:03;;;;;;;3.67;1.70;;;8.70;66.90;;;;;;5068462;28;20468;-89
2023/02/28 11:43:54;;;;;;;3.33;1.35;;;8.90;66.40;;;;;;5069593;28;20016;-89
2023/02/28 11:46:49;;;;;;;1.77;1.17;;;8.90;65.20;;;;;;5068531;28;20020;-89
2023/02/28 11:49:35;;;;;;;2.95;1.63;;;9.00;63.20;;;;;;5070862;28;20029;-89
2023/02/28 11:52:20;;;;;;;2.47;1.33;;;9.10;61.60;;;;;;5094391;28;20085;-89
2023/02/28 11:55:00;;;;;;;2.80;1.33;;;9.10;62.90;;;;;;5069082;28;20028;-90
2023/02/28 11:57:56;;;;;;;3.08;1.73;;;9.10;60.90;;;;;;5071624;28;20414;-87
2023/02/28 12:00:40;;;;;;;2.15;1.27;;;9.20;61.30;;;;;;5073276;28;20029;-86
2023/02/28 12:03:30;;;;;;;2.22;1.42;;;9.30;62.20;;;;;;5076296;28;20069;-87
2023/02/28 12:06:14;;;;;;;2.63;1.30;;;9.40;62.50;;;;;;5073039;28;20044;-88
2023/02/28 12:09:17;;;;;;;3.40;1.30;;;9.50;61.10;;;;;;5078080;28;20349;-88
2023/02/28 12:11:55;;;;;;;3.05;1.50;;;9.50;58.40;;;;;;5070006;28;20423;-86
2023/02/28 12:14:48;;;;;;;2.28;1.50;;;9.60;59.00;;;;;;5073231;28;20096;-88
2023/02/28 12:17:20;;;;;;;2.17;1.48;;;9.70;60.30;;;;;;5078093;28;20028;-87
2023/02/28 12:19:55;;;;;;;2.60;1.45;;;9.70;60.40;;;;;;5072354;28;20464;-88
2023/02/28 12:22:57;;;;;;;2.08;1.33;;;9.90;60.00;;;;;;5069718;28;20020;-87
2023/02/28 12:25:50;;;;;;;2.85;1.45;;;9.90;57.00;;;;;;5074213;28;20078;-88
2023/02/28 12:28:20;;;;;;;2.47;1.50;;;9.90;56.90;;;;;;5077021;28;20024;-87
2023/02/28 12:31:25;;;;;;;2.63;1.40;;;10.00;58.70;;;;;;5077535;28;20111;-88
2023/02/28 12:33:55;;;;;;;2.38;1.30;;;10.10;59.50;;;;;;5036092;28;20320;-89
2023/02/28 12:36:22;;;;;;;2.15;1.48;;;10.20;59.30;;;;;;5060498;28;20024;-89
2023/02/28 12:39:00;;;;;;;2.50;1.70;;;10.30;58.40;;;;;;5060712;28;20510;-89
2023/02/28 12:41:47;;;;;;;2.78;1.70;;;10.30;58.30;;;;;;5091723;28;20024;-86
2023/02/28 12:44:19;;;;;;;2.33;1.58;;;10.40;58.90;;;;;;5084428;28;20084;-90
2023/02/28 12:46:50;;;;;;;3.20;1.80;;;10.50;58.10;;;;;;5091986;28;20144;-89
2023/02/28 12:49:21;;;;;;;2.97;1.58;;;10.60;58.70;;;;;;5084530;28;20043;-91
2023/02/28 12:51:50;;;;;;;2.95;1.98;;;10.60;58.40;;;;;;5082187;28;20110;-87
2023/02/28 12:54:57;;;;;;;3.53;1.58;;;10.70;58.90;;;;;;5078570;28;20451;-86
2023/02/28 12:57:38;;;;;;;3.90;1.60;;;10.80;57.90;;;;;;5073899;28;20053;-89
2023/02/28 13:00:13;;;;;;;2.58;1.67;;;10.90;57.40;;;;;;5072176;28;20020;-87
2023/02/28 13:02:57;;;;;;;3.70;2.00;;;10.90;57.10;;;;;;5071548;28;20033;-88
2023/02/28 13:05:47;;;;;;;2.72;1.60;;;11.00;56.70;;;;;;5074230;28;20119;-89
2023/02/28 13:08:34;;;;;;;2.45;1.55;;;11.00;56.60;;;;;;5090265;28;20031;-86
2023/02/28 13:11:00;;;;;;;5.72;1.70;;;11.10;56.90;;;;;;5078316;28;20035;-87
2023/02/28 13:13:29;;;;;;;2.72;1.70;;;11.20;57.40;;;;;;5072294;28;20033;-87
2023/02/28 13:16:06;;;;;;;3.03;1.73;;;11.20;57.20;;;;;;5072525;28;20016;-86
2023/02/28 13:18:56;;;;;;;2.50;1.63;;;11.30;56.90;;;;;;5052914;28;20021;-87
2023/02/28 13:21:28;;;;;;;2.78;1.73;;;11.20;54.00;;;;;;5060675;28;20473;-88
2023/02/28 13:23:58;;;;;;;3.55;1.50;;;11.20;55.10;;;;;;5061175;28;20024;-85
2023/02/28 13:26:41;;;;;;;2.65;1.50;;;11.20;56.30;;;;;;5061279;28;20059;-87
2023/02/28 13:29:16;;;;;;;3.05;1.40;;;11.30;55.60;;;;;;5079567;28;20040;-87